Time;durP1;ratioP1;P1;durP2;ratioP2;P2;SDS_P1;SDS_P2;PMS_P1;PMS_P2;Temp;Humidity;BMP_temperature;BMP_pressure;BME280_temperature;BME280_humidity;BME280_pressure;Samples;Min_cycle;Max_cycle;Signal;HPM_P1;HPM_P2
2023/06/15 00:00:20;;;;;;;3.50;2.75;;;;;;;;;;12981359;19;20021;-65
2023/06/15 00:04:58;;;;;;;3.90;3.10;;;;;;;;;;12982304;19;20019;-65
2023/06/15 00:09:16;;;;;;;3.47;2.72;;;;;;;;;;12981206;19;20015;-65
2023/06/15 00:13:35;;;;;;;5.32;2.95;;;;;;;;;;12981188;19;20043;-65
2023/06/15 00:17:52;;;;;;;6.00;3.40;;;;;;;;;;12978363;19;20025;-65
2023/06/15 00:22:15;;;;;;;5.13;3.60;;;;;;;;;;12979723;19;20017;-65
2023/06/15 00:26:32;;;;;;;5.00;3.95;;;;;;;;;;12980438;19;20015;-65
2023/06/15 00:30:51;;;;;;;4.97;3.30;;;;;;;;;;12979959;19;20014;-65
2023/06/15 00:35:10;;;;;;;4.80;3.60;;;;;;;;;;12979446;19;20014;-65
2023/06/15 00:39:28;;;;;;;4.22;3.00;;;;;;;;;;12978775;19;20041;-65
2023/06/15 00:43:47;;;;;;;4.57;3.78;;;;;;;;;;12981301;19;20010;-65
2023/06/15 00:48:05;;;;;;;3.85;3.20;;;;;;;;;;12991192;19;20026;-65
2023/06/15 00:52:25;;;;;;;5.97;3.13;;;;;;;;;;12992561;19;20343;-65
2023/06/15 00:56:44;;;;;;;3.17;2.78;;;;;;;;;;12991632;19;20021;-65
2023/06/15 01:01:03;;;;;;;4.65;3.58;;;;;;;;;;12989899;19;20022;-65
2023/06/15 01:05:22;;;;;;;8.10;4.63;;;;;;;;;;12993548;19;20465;-65
2023/06/15 01:09:42;;;;;;;5.97;4.10;;;;;;;;;;12990159;19;20025;-65
2023/06/15 01:14:02;;;;;;;5.68;3.83;;;;;;;;;;12990173;19;20014;-65
2023/06/15 01:18:22;;;;;;;5.88;4.00;;;;;;;;;;12988301;19;21709;-65
2023/06/15 01:22:59;;;;;;;7.53;3.55;;;;;;;;;;12988461;19;20027;-65
2023/06/15 01:27:21;;;;;;;5.72;3.90;;;;;;;;;;12989351;19;20018;-65
2023/06/15 01:31:40;;;;;;;5.82;3.67;;;;;;;;;;12987846;19;20018;-65
2023/06/15 01:35:59;;;;;;;8.18;5.13;;;;;;;;;;12987924;19;20023;-65
2023/06/15 01:40:17;;;;;;;6.75;5.00;;;;;;;;;;12988183;19;20010;-65
2023/06/15 01:44:39;;;;;;;6.57;3.88;;;;;;;;;;12988537;19;20052;-65
2023/06/15 01:48:58;;;;;;;5.10;3.70;;;;;;;;;;12987478;19;20011;-65
2023/06/15 01:53:17;;;;;;;8.65;4.68;;;;;;;;;;12986412;19;20466;-65
2023/06/15 01:57:39;;;;;;;6.35;4.38;;;;;;;;;;12984510;19;20482;-65
2023/06/15 02:01:57;;;;;;;7.70;4.75;;;;;;;;;;12987558;19;20013;-65
2023/06/15 02:06:15;;;;;;;6.60;4.18;;;;;;;;;;12986565;19;20007;-65
2023/06/15 02:10:33;;;;;;;8.13;4.72;;;;;;;;;;12985216;19;20014;-65
2023/06/15 02:14:50;;;;;;;7.00;4.28;;;;;;;;;;12987390;19;20014;-65
2023/06/15 02:19:10;;;;;;;7.15;4.50;;;;;;;;;;12985438;19;20026;-65
2023/06/15 02:23:28;;;;;;;7.20;4.63;;;;;;;;;;12983879;19;20038;-65
2023/06/15 02:27:46;;;;;;;7.28;4.63;;;;;;;;;;12986600;19;20018;-65
2023/06/15 02:32:04;;;;;;;8.60;5.25;;;;;;;;;;12986715;19;20007;-65
2023/06/15 02:36:23;;;;;;;8.85;4.78;;;;;;;;;;12986546;19;20083;-65
2023/06/15 02:40:41;;;;;;;8.82;5.38;;;;;;;;;;12985089;19;20359;-65
2023/06/15 02:45:01;;;;;;;8.57;5.03;;;;;;;;;;12984965;19;20384;-65
2023/06/15 02:49:19;;;;;;;8.30;5.45;;;;;;;;;;12984222;19;20406;-65
2023/06/15 02:53:36;;;;;;;10.43;6.50;;;;;;;;;;12984629;19;20469;-65
2023/06/15 02:57:54;;;;;;;8.80;5.85;;;;;;;;;;12984075;19;20044;-65
2023/06/15 03:02:13;;;;;;;7.35;4.70;;;;;;;;;;12983800;19;20038;-65
2023/06/15 03:06:34;;;;;;;8.85;5.45;;;;;;;;;;12983321;19;20006;-65
2023/06/15 03:10:52;;;;;;;8.98;5.90;;;;;;;;;;12984312;19;20018;-65
2023/06/15 03:15:11;;;;;;;6.05;4.57;;;;;;;;;;12983653;19;20379;-65
2023/06/15 03:19:28;;;;;;;6.95;4.60;;;;;;;;;;12983599;19;20022;-65
2023/06/15 03:23:47;;;;;;;7.25;4.65;;;;;;;;;;12984583;19;20046;-64
2023/06/15 03:28:04;;;;;;;8.38;5.25;;;;;;;;;;12983373;19;20010;-65
2023/06/15 03:32:23;;;;;;;6.53;4.97;;;;;;;;;;12983555;19;20010;-65
2023/06/15 03:36:43;;;;;;;6.20;4.78;;;;;;;;;;12983709;19;20022;-65
2023/06/15 03:41:03;;;;;;;7.90;5.57;;;;;;;;;;12982791;19;20015;-65
2023/06/15 03:45:21;;;;;;;8.90;4.95;;;;;;;;;;12981360;19;20007;-65
2023/06/15 03:49:40;;;;;;;7.63;4.97;;;;;;;;;;12982195;19;20014;-65
2023/06/15 03:53:59;;;;;;;8.68;5.22;;;;;;;;;;12981797;19;20017;-65
2023/06/15 03:58:17;;;;;;;7.13;4.90;;;;;;;;;;12980993;19;20032;-65
2023/06/15 04:02:35;;;;;;;8.70;5.30;;;;;;;;;;12980083;19;20014;-65
2023/06/15 04:06:55;;;;;;;9.50;5.35;;;;;;;;;;12981231;19;20014;-65
2023/06/15 04:11:14;;;;;;;7.28;4.68;;;;;;;;;;12980348;19;20458;-65
2023/06/15 04:15:32;;;;;;;8.05;4.88;;;;;;;;;;12980876;19;20018;-65
2023/06/15 04:19:50;;;;;;;7.25;4.85;;;;;;;;;;12986799;19;20107;-65
2023/06/15 04:24:08;;;;;;;7.35;4.57;;;;;;;;;;12992715;19;20017;-65
2023/06/15 04:28:27;;;;;;;5.25;4.05;;;;;;;;;;12993660;19;20017;-65
2023/06/15 04:32:46;;;;;;;6.35;3.55;;;;;;;;;;12992818;19;20339;-65
2023/06/15 04:37:08;;;;;;;4.55;3.78;;;;;;;;;;12991576;19;20014;-65
2023/06/15 04:41:29;;;;;;;6.35;4.00;;;;;;;;;;12991369;19;20011;-65
2023/06/15 04:45:47;;;;;;;6.80;4.28;;;;;;;;;;12992045;19;20014;-64
2023/06/15 04:50:05;;;;;;;;;;;;;;;;;;12991639;19;20355;-65
2023/06/15 04:54:23;;;;;;;7.00;4.63;;;;;;;;;;12991273;19;19922;-65
2023/06/15 04:58:41;;;;;;;5.80;4.15;;;;;;;;;;12990889;19;20010;-64
2023/06/15 05:02:59;;;;;;;5.93;4.13;;;;;;;;;;12991117;19;20014;-64
2023/06/15 05:07:17;;;;;;;6.00;4.15;;;;;;;;;;12987639;19;20409;-65
2023/06/15 05:11:34;;;;;;;7.18;4.35;;;;;;;;;;12990209;19;20022;-64
2023/06/15 05:15:53;;;;;;;9.02;4.55;;;;;;;;;;12990826;19;20014;-64
2023/06/15 05:20:14;;;;;;;5.35;3.97;;;;;;;;;;12989688;19;20014;-65
2023/06/15 05:24:32;;;;;;;9.25;4.85;;;;;;;;;;12990042;19;20026;-64
2023/06/15 05:28:50;;;;;;;7.47;5.82;;;;;;;;;;12989262;19;20010;-64
2023/06/15 05:33:08;;;;;;;8.68;5.38;;;;;;;;;;12988859;19;20627;-65
2023/06/15 05:37:26;;;;;;;11.10;6.18;;;;;;;;;;12989450;19;20013;-64
2023/06/15 05:41:45;;;;;;;10.55;7.03;;;;;;;;;;12988265;19;20033;-64
2023/06/15 05:46:03;;;;;;;12.75;7.38;;;;;;;;;;12986911;19;20014;-65
2023/06/15 05:50:21;;;;;;;11.75;8.05;;;;;;;;;;12988207;19;20010;-65
2023/06/15 05:54:42;;;;;;;14.23;8.25;;;;;;;;;;12987862;19;20018;-64
2023/06/15 05:59:01;;;;;;;13.13;7.63;;;;;;;;;;12987463;19;20025;-66
2023/06/15 06:03:19;;;;;;;14.05;6.75;;;;;;;;;;12987868;19;20015;-64
2023/06/15 06:07:37;;;;;;;;;;;;;;;;;;12988944;19;20046;-65
2023/06/15 06:11:55;;;;;;;14.30;8.05;;;;;;;;;;12986993;19;20247;-64
2023/06/15 06:16:14;;;;;;;14.75;7.97;;;;;;;;;;12986419;19;20017;-63
2023/06/15 06:20:32;;;;;;;15.43;7.90;;;;;;;;;;12985469;19;20417;-63
2023/06/15 06:24:49;;;;;;;15.68;7.95;;;;;;;;;;12986234;19;20385;-63
2023/06/15 06:29:07;;;;;;;;;;;;;;;;;;12986049;19;20014;-63
2023/06/15 06:33:25;;;;;;;11.77;5.95;;;;;;;;;;12986087;19;19934;-63
2023/06/15 06:37:44;;;;;;;5.80;4.15;;;;;;;;;;12985396;19;20018;-64
2023/06/15 06:42:03;;;;;;;7.53;4.30;;;;;;;;;;12981220;19;20029;-63
2023/06/15 06:46:22;;;;;;;9.50;5.38;;;;;;;;;;12985134;19;20384;-63
2023/06/15 06:50:40;;;;;;;7.32;4.55;;;;;;;;;;12985385;19;20018;-63
2023/06/15 06:54:58;;;;;;;;;;;;;;;;;;12984908;19;20025;-63
2023/06/15 06:59:16;;;;;;;9.52;5.80;;;;;;;;;;12983672;19;19922;-63
2023/06/15 07:03:54;;;;;;;10.35;6.18;;;;;;;;;;12984093;19;20026;-63
2023/06/15 07:08:12;;;;;;;24.83;8.63;;;;;;;;;;12983128;19;20014;-64
2023/06/15 07:12:30;;;;;;;15.95;7.50;;;;;;;;;;12983011;19;20018;-65
2023/06/15 07:16:47;;;;;;;11.02;7.05;;;;;;;;;;12981793;19;20022;-65
2023/06/15 07:21:05;;;;;;;14.32;7.50;;;;;;;;;;12981867;19;20025;-65
2023/06/15 07:25:22;;;;;;;13.25;6.57;;;;;;;;;;12983507;19;20014;-64
2023/06/15 07:29:41;;;;;;;10.95;5.88;;;;;;;;;;12983566;19;20505;-65
2023/06/15 07:33:59;;;;;;;20.30;5.95;;;;;;;;;;12984377;19;20022;-64
2023/06/15 07:38:17;;;;;;;12.07;5.35;;;;;;;;;;12983101;19;20018;-64
2023/06/15 07:42:35;;;;;;;10.02;4.93;;;;;;;;;;12982372;19;20010;-64
2023/06/15 07:46:54;;;;;;;12.63;6.70;;;;;;;;;;12980586;19;20032;-65
2023/06/15 07:51:11;;;;;;;9.63;5.75;;;;;;;;;;12981345;19;20023;-65
2023/06/15 07:55:50;;;;;;;11.48;5.22;;;;;;;;;;12991321;19;20010;-64
2023/06/15 08:00:10;;;;;;;10.10;5.25;;;;;;;;;;12993011;19;20021;-65
2023/06/15 08:04:28;;;;;;;11.43;5.30;;;;;;;;;;12994384;19;20022;-65
2023/06/15 08:08:46;;;;;;;14.93;4.97;;;;;;;;;;12994463;19;20014;-64
2023/06/15 08:13:06;;;;;;;8.57;3.95;;;;;;;;;;12992951;19;20395;-64
2023/06/15 08:17:28;;;;;;;5.95;3.78;;;;;;;;;;12993815;19;20042;-64
2023/06/15 08:21:46;;;;;;;6.70;3.88;;;;;;;;;;12992804;19;20014;-64
2023/06/15 08:26:04;;;;;;;10.07;4.72;;;;;;;;;;12992466;19;20030;-65
2023/06/15 08:30:21;;;;;;;10.68;5.53;;;;;;;;;;12993667;19;20041;-65
2023/06/15 08:34:43;;;;;;;6.90;3.30;;;;;;;;;;12993862;19;20041;-65
2023/06/15 08:39:03;;;;;;;5.85;3.75;;;;;;;;;;12992188;19;20074;-69
2023/06/15 08:43:22;;;;;;;7.78;4.88;;;;;;;;;;12991825;19;20007;-65
2023/06/15 08:47:41;;;;;;;10.52;4.40;;;;;;;;;;12990387;19;20021;-64
2023/06/15 08:51:59;;;;;;;9.93;4.85;;;;;;;;;;12989708;19;20015;-64
2023/06/15 08:56:17;;;;;;;6.45;3.22;;;;;;;;;;12990943;19;20018;-64
2023/06/15 09:00:35;;;;;;;6.78;3.65;;;;;;;;;;12988542;19;20034;-64
2023/06/15 09:04:53;;;;;;;5.13;3.05;;;;;;;;;;12990444;19;20489;-64
2023/06/15 09:09:12;;;;;;;5.13;3.33;;;;;;;;;;12990298;19;20022;-64
2023/06/15 09:13:33;;;;;;;6.60;3.50;;;;;;;;;;12989151;19;20110;-64
2023/06/15 09:17:56;;;;;;;5.93;2.80;;;;;;;;;;12991268;19;20018;-64
2023/06/15 09:22:14;;;;;;;7.70;3.63;;;;;;;;;;12987944;19;20053;-64
2023/06/15 09:26:32;;;;;;;;;;;;;;;;;;12989305;19;20029;-64
2023/06/15 09:30:59;;;;;;;6.82;4.00;;;;;;;;;;12990324;19;19914;-64
2023/06/15 09:35:16;;;;;;;5.47;4.03;;;;;;;;;;12988767;19;20013;-63
2023/06/15 09:39:34;;;;;;;7.82;4.35;;;;;;;;;;12988718;19;20038;-64
2023/06/15 09:43:55;;;;;;;6.35;4.30;;;;;;;;;;12988880;19;20021;-63
2023/06/15 09:48:14;;;;;;;5.97;4.35;;;;;;;;;;12987822;19;20006;-63
2023/06/15 09:52:36;;;;;;;8.93;5.03;;;;;;;;;;12988087;19;20015;-63
2023/06/15 09:56:54;;;;;;;7.00;4.82;;;;;;;;;;12987460;19;20774;-64
2023/06/15 10:01:12;;;;;;;8.07;4.93;;;;;;;;;;12986698;19;20358;-63
2023/06/15 10:05:34;;;;;;;6.00;4.03;;;;;;;;;;12986800;19;20006;-64
2023/06/15 10:09:53;;;;;;;6.78;4.90;;;;;;;;;;12988379;19;20019;-64
2023/06/15 10:14:28;;;;;;;6.22;4.53;;;;;;;;;;12987727;19;20014;-64
2023/06/15 10:19:01;;;;;;;6.88;4.88;;;;;;;;;;12985172;19;20014;-64
2023/06/15 10:23:25;;;;;;;7.40;4.93;;;;;;;;;;12985682;19;20011;-63
2023/06/15 10:28:03;;;;;;;5.83;4.47;;;;;;;;;;12986755;19;20015;-63
2023/06/15 10:32:43;;;;;;;6.40;4.60;;;;;;;;;;12985641;19;20011;-63
2023/06/15 10:37:20;;;;;;;5.90;3.88;;;;;;;;;;12986329;19;20018;-63
2023/06/15 10:41:37;;;;;;;9.20;5.40;;;;;;;;;;12984867;19;20039;-64
2023/06/15 10:45:55;;;;;;;6.78;4.65;;;;;;;;;;12984926;19;20006;-64
2023/06/15 10:50:16;;;;;;;8.70;4.28;;;;;;;;;;12984687;19;20776;-64
2023/06/15 10:54:35;;;;;;;9.73;4.22;;;;;;;;;;12984941;19;20018;-63
2023/06/15 10:58:58;;;;;;;7.05;4.82;;;;;;;;;;12983374;19;20014;-63
2023/06/15 11:03:24;;;;;;;5.70;3.92;;;;;;;;;;12984321;19;20015;-64
2023/06/15 11:07:47;;;;;;;8.27;3.97;;;;;;;;;;12984572;19;20014;-63
2023/06/15 11:12:38;;;;;;;5.55;4.25;;;;;;;;;;12983900;19;20018;-64
2023/06/15 11:17:05;;;;;;;6.32;4.68;;;;;;;;;;12984443;19;20038;-64
2023/06/15 11:21:27;;;;;;;6.22;3.55;;;;;;;;;;12983223;19;20042;-63
2023/06/15 11:25:47;;;;;;;4.97;3.90;;;;;;;;;;12983768;19;20014;-63
2023/06/15 11:30:08;;;;;;;6.82;3.80;;;;;;;;;;12982105;19;20011;-63
2023/06/15 11:34:26;;;;;;;6.20;4.28;;;;;;;;;;12981332;19;20014;-63
2023/06/15 11:38:45;;;;;;;7.68;4.80;;;;;;;;;;12980573;19;20754;-64
2023/06/15 11:43:04;;;;;;;6.43;3.95;;;;;;;;;;12979531;19;20018;-63
2023/06/15 11:47:23;;;;;;;5.30;3.75;;;;;;;;;;12981879;19;20107;-63
2023/06/15 11:51:46;;;;;;;6.63;4.45;;;;;;;;;;12982153;19;20623;-64
2023/06/15 11:56:13;;;;;;;7.45;4.80;;;;;;;;;;12980737;19;20556;-64
2023/06/15 12:00:31;;;;;;;7.70;5.03;;;;;;;;;;12981058;19;20010;-64
2023/06/15 12:04:49;;;;;;;13.68;6.05;;;;;;;;;;12981283;19;20425;-64
2023/06/15 12:09:07;;;;;;;;;;;;;;;;;;12978329;19;20359;-64
2023/06/15 12:13:26;;;;;;;11.07;6.47;;;;;;;;;;12981345;19;19978;-64
2023/06/15 12:17:45;;;;;;;12.50;7.13;;;;;;;;;;12981149;19;20038;-66
2023/06/15 12:22:03;;;;;;;10.65;6.60;;;;;;;;;;12978738;19;20025;-64
2023/06/15 12:26:21;;;;;;;11.02;6.85;;;;;;;;;;12980546;19;20041;-64
2023/06/15 12:30:40;;;;;;;8.02;5.88;;;;;;;;;;12980183;19;20025;-64
2023/06/15 12:34:59;;;;;;;12.10;6.75;;;;;;;;;;12979982;19;20007;-64
2023/06/15 12:39:18;;;;;;;9.90;6.47;;;;;;;;;;12980267;19;20015;-65
2023/06/15 12:43:36;;;;;;;10.43;6.72;;;;;;;;;;12990260;19;20580;-65
2023/06/15 12:47:53;;;;;;;9.68;5.55;;;;;;;;;;12991781;19;20014;-65
2023/06/15 12:52:14;;;;;;;10.20;6.70;;;;;;;;;;12990563;19;20014;-65
2023/06/15 12:56:34;;;;;;;14.98;7.85;;;;;;;;;;12991435;19;20010;-64
2023/06/15 13:00:52;;;;;;;9.98;6.82;;;;;;;;;;12989954;19;20020;-65
2023/06/15 13:05:10;;;;;;;10.18;6.05;;;;;;;;;;12989995;19;20025;-64
2023/06/15 13:09:28;;;;;;;14.35;6.40;;;;;;;;;;12991036;19;20021;-64
2023/06/15 13:13:45;;;;;;;;;;;;;;;;;;12990775;19;20029;-65
2023/06/15 13:18:04;;;;;;;14.50;7.50;;;;;;;;;;12989093;19;19933;-65
2023/06/15 13:22:21;;;;;;;15.98;7.85;;;;;;;;;;12987267;19;20027;-65
2023/06/15 13:26:40;;;;;;;11.75;6.18;;;;;;;;;;12988403;19;20011;-65
2023/06/15 13:30:58;;;;;;;11.07;5.85;;;;;;;;;;12989263;19;20018;-65
2023/06/15 13:35:16;;;;;;;9.68;6.10;;;;;;;;;;12986698;19;20021;-65
2023/06/15 13:39:35;;;;;;;9.52;5.35;;;;;;;;;;12989618;19;20021;-65
2023/06/15 13:43:54;;;;;;;8.40;5.18;;;;;;;;;;12987866;19;20504;-65
2023/06/15 13:48:12;;;;;;;9.75;5.70;;;;;;;;;;12987108;19;20026;-65
2023/06/15 13:52:31;;;;;;;9.40;5.82;;;;;;;;;;12987202;19;20018;-64
2023/06/15 13:56:50;;;;;;;8.43;5.07;;;;;;;;;;12987520;19;20537;-65
2023/06/15 14:01:08;;;;;;;8.98;5.05;;;;;;;;;;12985935;19;20014;-65
2023/06/15 14:05:26;;;;;;;10.98;5.55;;;;;;;;;;12987948;19;20018;-65
2023/06/15 14:09:45;;;;;;;7.80;4.88;;;;;;;;;;12987687;19;20015;-65
2023/06/15 14:14:02;;;;;;;7.78;4.55;;;;;;;;;;12985938;19;20018;-66
2023/06/15 14:18:23;;;;;;;7.63;5.20;;;;;;;;;;12986616;19;20025;-65
2023/06/15 14:22:41;;;;;;;7.85;4.65;;;;;;;;;;12986732;19;20034;-65
2023/06/15 14:26:58;;;;;;;6.53;4.70;;;;;;;;;;12986620;19;20367;-65
2023/06/15 14:31:16;;;;;;;;;;;;;;;;;;12986773;19;20010;-65
2023/06/15 14:35:35;;;;;;;5.95;4.05;;;;;;;;;;12986432;19;19929;-65
2023/06/15 14:39:53;;;;;;;6.57;4.75;;;;;;;;;;12986477;19;20381;-65
2023/06/15 14:44:12;;;;;;;7.70;4.80;;;;;;;;;;12984300;19;20034;-65
2023/06/15 14:48:30;;;;;;;8.02;5.07;;;;;;;;;;12985303;19;20022;-65
2023/06/15 14:52:48;;;;;;;10.70;5.35;;;;;;;;;;12985061;19;20086;-65
2023/06/15 14:57:11;;;;;;;6.70;4.85;;;;;;;;;;12983441;19;20481;-65
2023/06/15 15:01:29;;;;;;;8.02;4.88;;;;;;;;;;12983384;19;20006;-65
2023/06/15 15:05:48;;;;;;;7.95;4.93;;;;;;;;;;12983923;19;20019;-65
2023/06/15 15:10:06;;;;;;;;;;;;;;;;;;12984726;19;20050;-65
2023/06/15 15:14:24;;;;;;;7.25;4.47;;;;;;;;;;12984499;19;20249;-65
2023/06/15 15:18:42;;;;;;;7.05;4.78;;;;;;;;;;12983980;19;20025;-65
2023/06/15 15:22:59;;;;;;;;;;;;;;;;;;12984199;19;20011;-65
2023/06/15 15:27:18;;;;;;;7.53;4.57;;;;;;;;;;12982649;19;19915;-65
2023/06/15 15:31:36;;;;;;;7.43;4.53;;;;;;;;;;12983097;19;20011;-65
2023/06/15 15:35:54;;;;;;;7.97;4.47;;;;;;;;;;12982463;19;20030;-65
2023/06/15 15:40:12;;;;;;;7.00;4.88;;;;;;;;;;12981966;19;20018;-65
2023/06/15 15:44:31;;;;;;;7.55;5.30;;;;;;;;;;12981246;19;20022;-65
2023/06/15 15:48:49;;;;;;;7.18;4.90;;;;;;;;;;12981256;19;20015;-65
2023/06/15 15:53:07;;;;;;;;;;;;;;;;;;12981741;19;20480;-66
2023/06/15 15:57:27;;;;;;;7.47;4.90;;;;;;;;;;12981926;19;19918;-65
2023/06/15 16:01:48;;;;;;;6.68;3.90;;;;;;;;;;12980712;19;20010;-65
2023/06/15 16:06:06;;;;;;;7.10;4.95;;;;;;;;;;12980987;19;20014;-65
2023/06/15 16:10:23;;;;;;;5.70;4.07;;;;;;;;;;12980008;19;20470;-65
2023/06/15 16:14:41;;;;;;;6.43;4.50;;;;;;;;;;12983386;19;20015;-65
2023/06/15 16:18:59;;;;;;;7.53;4.35;;;;;;;;;;12992953;19;20006;-64
2023/06/15 16:23:17;;;;;;;5.78;4.00;;;;;;;;;;12991151;19;20014;-65
2023/06/15 16:27:36;;;;;;;8.52;4.43;;;;;;;;;;12993324;19;20043;-65
2023/06/15 16:31:54;;;;;;;9.23;4.45;;;;;;;;;;12992886;19;20018;-64
2023/06/15 16:36:16;;;;;;;5.80;4.18;;;;;;;;;;12992157;19;20018;-64
2023/06/15 16:40:34;;;;;;;5.50;3.83;;;;;;;;;;12992145;19;20473;-65
2023/06/15 16:44:53;;;;;;;5.78;3.60;;;;;;;;;;12991836;19;20014;-65
2023/06/15 16:49:10;;;;;;;4.35;2.90;;;;;;;;;;12990267;19;20453;-64
2023/06/15 16:53:28;;;;;;;6.65;3.58;;;;;;;;;;12990913;19;20014;-64
2023/06/15 16:57:47;;;;;;;3.35;2.63;;;;;;;;;;12991057;19;20011;-64
2023/06/15 17:02:05;;;;;;;;;;;;;;;;;;12988903;19;20015;-64
2023/06/15 17:06:23;;;;;;;3.50;2.53;;;;;;;;;;12990732;19;19926;-64
2023/06/15 17:10:42;;;;;;;5.43;3.38;;;;;;;;;;12990364;19;20010;-64
2023/06/15 17:15:00;;;;;;;3.40;2.67;;;;;;;;;;12990639;19;20010;-64
2023/06/15 17:19:18;;;;;;;4.35;2.88;;;;;;;;;;12990306;19;20014;-64
2023/06/15 17:23:37;;;;;;;6.85;3.45;;;;;;;;;;12990394;19;20479;-64
2023/06/15 17:27:54;;;;;;;3.13;2.63;;;;;;;;;;12989272;19;20014;-64
2023/06/15 17:32:12;;;;;;;4.85;2.85;;;;;;;;;;12988036;19;20018;-64
2023/06/15 17:36:31;;;;;;;5.05;3.40;;;;;;;;;;12989839;19;20044;-64
2023/06/15 17:40:49;;;;;;;4.72;3.20;;;;;;;;;;12988230;19;20364;-64
2023/06/15 17:45:07;;;;;;;4.93;3.58;;;;;;;;;;12987633;19;20372;-64
2023/06/15 17:49:26;;;;;;;5.30;3.47;;;;;;;;;;12988140;19;20010;-64
2023/06/15 17:53:44;;;;;;;;;;;;;;;;;;12988915;19;20018;-64
2023/06/15 17:58:02;;;;;;;4.00;2.78;;;;;;;;;;12987824;19;19925;-64
2023/06/15 18:02:20;;;;;;;3.42;2.67;;;;;;;;;;12986697;19;20064;-64
2023/06/15 18:06:38;;;;;;;4.60;3.20;;;;;;;;;;12987870;19;20022;-64
2023/06/15 18:10:57;;;;;;;4.88;3.17;;;;;;;;;;12988717;19;20018;-64
2023/06/15 18:15:14;;;;;;;6.43;3.40;;;;;;;;;;12987582;19;20025;-64
2023/06/15 18:19:33;;;;;;;5.75;2.97;;;;;;;;;;12984901;19;20022;-64
2023/06/15 18:23:50;;;;;;;4.85;3.60;;;;;;;;;;12986997;19;20045;-64
2023/06/15 18:28:09;;;;;;;10.25;3.50;;;;;;;;;;12986018;19;20018;-64
2023/06/15 18:32:30;;;;;;;4.57;3.58;;;;;;;;;;12986092;19;20072;-64
2023/06/15 18:36:48;;;;;;;5.05;3.60;;;;;;;;;;12984946;19;20021;-63
2023/06/15 18:41:06;;;;;;;6.07;3.67;;;;;;;;;;12984652;19;20021;-63
2023/06/15 18:45:24;;;;;;;6.85;3.90;;;;;;;;;;12985760;19;20049;-63
2023/06/15 18:49:50;;;;;;;5.88;3.58;;;;;;;;;;12985819;19;20017;-63
2023/06/15 18:54:08;;;;;;;5.32;3.90;;;;;;;;;;12985236;19;20025;-63
2023/06/15 18:58:27;;;;;;;5.28;3.22;;;;;;;;;;12986354;19;20115;-64
2023/06/15 19:02:46;;;;;;;7.68;3.90;;;;;;;;;;12985325;19;20621;-64
2023/06/15 19:07:06;;;;;;;7.03;3.63;;;;;;;;;;12984668;19;20042;-65
2023/06/15 19:11:24;;;;;;;6.57;3.85;;;;;;;;;;12985207;19;20018;-63
2023/06/15 19:15:45;;;;;;;11.07;3.90;;;;;;;;;;12984753;19;20038;-64
2023/06/15 19:20:05;;;;;;;5.88;3.72;;;;;;;;;;12984041;19;20010;-63
2023/06/15 19:24:25;;;;;;;7.00;3.30;;;;;;;;;;12983667;19;20014;-63
2023/06/15 19:28:43;;;;;;;6.30;3.70;;;;;;;;;;12983313;19;20014;-63
2023/06/15 19:33:00;;;;;;;;;;;;;;;;;;12983476;19;20011;-64
2023/06/15 19:37:18;;;;;;;5.45;3.40;;;;;;;;;;12982841;19;19922;-63
2023/06/15 19:41:37;;;;;;;5.78;4.10;;;;;;;;;;12981976;19;20335;-63
2023/06/15 19:45:59;;;;;;;11.38;3.17;;;;;;;;;;12982849;19;20519;-64
2023/06/15 19:50:17;;;;;;;6.57;3.80;;;;;;;;;;12996746;19;20014;-63
2023/06/15 19:54:36;;;;;;;8.23;3.47;;;;;;;;;;13008279;19;20010;-63
2023/06/15 19:58:54;;;;;;;6.25;4.15;;;;;;;;;;13007420;19;20011;-63
2023/06/15 20:03:12;;;;;;;6.40;4.35;;;;;;;;;;13005930;19;20014;-63
2023/06/15 20:07:31;;;;;;;5.13;3.50;;;;;;;;;;13007250;19;20018;-64
2023/06/15 20:11:50;;;;;;;;;;;;;;;;;;13007270;19;20011;-63
2023/06/15 20:16:14;;;;;;;6.18;4.07;;;;;;;;;;13005320;19;19918;-63
2023/06/15 20:20:32;;;;;;;9.55;4.18;;;;;;;;;;13005563;19;20010;-63
2023/06/15 20:24:50;;;;;;;6.00;4.05;;;;;;;;;;13005452;19;20038;-63
2023/06/15 20:29:08;;;;;;;6.55;3.88;;;;;;;;;;13005371;19;20010;-63
2023/06/15 20:33:26;;;;;;;8.20;3.95;;;;;;;;;;13005489;19;20385;-64
2023/06/15 20:37:46;;;;;;;11.10;3.80;;;;;;;;;;13006023;19;20014;-63
2023/06/15 20:42:04;;;;;;;9.32;4.60;;;;;;;;;;13003560;19;20490;-63
2023/06/15 20:46:25;;;;;;;11.10;4.45;;;;;;;;;;13005797;19;20011;-63
2023/06/15 20:50:43;;;;;;;5.68;3.70;;;;;;;;;;13004424;19;20018;-63
2023/06/15 20:55:00;;;;;;;6.50;4.13;;;;;;;;;;13004714;19;20038;-63
2023/06/15 20:59:19;;;;;;;7.93;3.90;;;;;;;;;;13003362;19;20505;-63
2023/06/15 21:03:38;;;;;;;6.20;3.85;;;;;;;;;;12989178;19;20015;-63
2023/06/15 21:07:57;;;;;;;6.78;4.28;;;;;;;;;;12990915;19;20010;-63
2023/06/15 21:12:15;;;;;;;6.05;4.20;;;;;;;;;;12988842;19;20381;-63
2023/06/15 21:16:33;;;;;;;13.43;4.15;;;;;;;;;;12990319;19;20026;-63
2023/06/15 21:20:52;;;;;;;7.65;3.50;;;;;;;;;;12990141;19;20014;-63
2023/06/15 21:25:11;;;;;;;6.03;3.53;;;;;;;;;;12988772;19;20014;-63
2023/06/15 21:29:28;;;;;;;5.25;3.40;;;;;;;;;;12990545;19;20022;-63
2023/06/15 21:33:46;;;;;;;7.70;4.20;;;;;;;;;;12987328;19;20464;-62
2023/06/15 21:38:04;;;;;;;4.88;3.75;;;;;;;;;;12989906;19;20025;-63
2023/06/15 21:42:22;;;;;;;6.25;3.67;;;;;;;;;;12988990;19;20027;-63
2023/06/15 21:46:40;;;;;;;5.53;4.07;;;;;;;;;;12990054;19;20344;-63
2023/06/15 21:50:59;;;;;;;6.18;4.13;;;;;;;;;;12989264;19;20351;-63
2023/06/15 21:55:18;;;;;;;5.35;3.83;;;;;;;;;;12988732;19;20014;-64
2023/06/15 21:59:36;;;;;;;14.20;3.55;;;;;;;;;;12989075;19;20011;-63
2023/06/15 22:03:55;;;;;;;7.30;3.92;;;;;;;;;;12987043;19;20006;-63
2023/06/15 22:08:13;;;;;;;5.68;3.78;;;;;;;;;;12987505;19;20493;-63
2023/06/15 22:12:32;;;;;;;5.30;3.55;;;;;;;;;;12984790;19;20344;-63
2023/06/15 22:16:52;;;;;;;7.15;4.05;;;;;;;;;;12987033;19;20017;-63
2023/06/15 22:21:10;;;;;;;5.28;4.25;;;;;;;;;;12986656;19;20047;-63
2023/06/15 22:25:29;;;;;;;10.10;4.25;;;;;;;;;;12970876;19;20026;-63
2023/06/15 22:29:56;;;;;;;5.23;3.73;;;;;;;;;;12987292;19;20022;-63
2023/06/15 22:34:16;;;;;;;6.13;3.15;;;;;;;;;;12986520;19;20242;-63
2023/06/15 22:38:37;;;;;;;8.10;4.68;;;;;;;;;;12987216;19;20011;-63
2023/06/15 22:42:55;;;;;;;4.40;3.17;;;;;;;;;;12986797;19;20018;-62
2023/06/15 22:47:17;;;;;;;5.13;3.50;;;;;;;;;;12986288;19;20015;-63
2023/06/15 22:51:37;;;;;;;5.15;3.55;;;;;;;;;;12986010;19;20023;-62
2023/06/15 22:55:55;;;;;;;4.93;3.15;;;;;;;;;;12985104;19;20018;-62
2023/06/15 23:00:15;;;;;;;5.85;3.58;;;;;;;;;;12984521;19;20014;-63
2023/06/15 23:04:33;;;;;;;5.40;3.15;;;;;;;;;;12984255;19;20466;-62
2023/06/15 23:08:52;;;;;;;9.52;3.58;;;;;;;;;;12985255;19;20018;-63
2023/06/15 23:13:11;;;;;;;5.22;3.67;;;;;;;;;;12984082;19;20014;-63
2023/06/15 23:17:29;;;;;;;5.10;3.47;;;;;;;;;;12985070;19;20010;-63
2023/06/15 23:21:53;;;;;;;7.57;4.15;;;;;;;;;;12983600;19;20015;-62
2023/06/15 23:26:14;;;;;;;5.68;3.42;;;;;;;;;;12982390;19;20015;-62
2023/06/15 23:30:33;;;;;;;5.53;3.95;;;;;;;;;;12985633;19;20026;-62
2023/06/15 23:34:50;;;;;;;4.82;3.53;;;;;;;;;;12984132;19;20022;-62
2023/06/15 23:39:09;;;;;;;5.00;3.15;;;;;;;;;;12983203;19;20011;-62
2023/06/15 23:43:27;;;;;;;8.98;3.58;;;;;;;;;;12982554;19;20364;-62
2023/06/15 23:47:46;;;;;;;5.78;3.50;;;;;;;;;;12982899;19;20040;-62
2023/06/15 23:52:05;;;;;;;5.28;3.47;;;;;;;;;;12981424;19;20014;-62
2023/06/15 23:56:23;;;;;;;4.53;3.67;;;;;;;;;;12981913;19;20030;-62
